createdAt,value
2018-02-21T00:00:01.787Z,40.87
2018-02-21T00:02:29.511Z,40.63
2018-02-21T00:04:57.512Z,40.87
2018-02-21T00:07:26.261Z,39.87
2018-02-21T00:09:53.949Z,39.30
2018-02-21T00:12:21.649Z,38.47
2018-02-21T00:14:49.933Z,38.93
2018-02-21T00:17:17.580Z,40.00
2018-02-21T00:19:45.985Z,39.67
2018-02-21T00:22:14.691Z,37.60
2018-02-21T00:24:43.239Z,39.43
2018-02-21T00:27:11.947Z,40.93
2018-02-21T00:29:39.728Z,37.73
2018-02-21T00:32:07.410Z,39.70
2018-02-21T00:34:35.137Z,36.93
2018-02-21T00:37:03.079Z,40.60
2018-02-21T00:39:30.755Z,39.67
2018-02-21T00:41:59.362Z,41.00
2018-02-21T00:44:27.084Z,40.27
2018-02-21T00:46:54.875Z,38.70
2018-02-21T00:49:22.561Z,38.77
2018-02-21T00:51:50.903Z,40.07
2018-02-21T00:54:18.630Z,39.33
2018-02-21T00:56:46.234Z,43.63
2018-02-21T00:59:13.878Z,44.47
2018-02-21T01:01:41.610Z,44.37
2018-02-21T01:04:09.231Z,43.60
2018-02-21T01:06:36.929Z,42.37
2018-02-21T01:09:05.623Z,40.30
2018-02-21T01:11:33.381Z,42.60
2018-02-21T01:14:00.980Z,41.00
2018-02-21T01:16:28.741Z,41.83
2018-02-21T01:18:56.538Z,39.07
2018-02-21T01:21:25.162Z,40.67
2018-02-21T01:23:53.734Z,38.60
2018-02-21T01:26:21.467Z,39.37
2018-02-21T01:28:49.939Z,40.63
2018-02-21T01:31:18.366Z,41.17
2018-02-21T01:33:46.684Z,40.13
2018-02-21T01:36:14.389Z,38.67
2018-02-21T01:38:42.026Z,38.17
2018-02-21T01:41:09.694Z,36.43
2018-02-21T01:43:37.699Z,37.80
2018-02-21T01:46:05.465Z,37.97
2018-02-21T01:48:34.068Z,38.57
2018-02-21T01:51:01.888Z,40.07
2018-02-21T01:53:29.520Z,38.67
2018-02-21T01:55:57.329Z,37.93
2018-02-21T01:58:25.686Z,39.00
2018-02-21T02:00:53.286Z,39.87
2018-02-21T02:03:20.864Z,40.27
2018-02-21T02:05:48.425Z,39.83
2018-02-21T02:08:16.022Z,40.80
2018-02-21T02:10:43.574Z,39.50
2018-02-21T02:13:11.157Z,38.17
2018-02-21T02:15:39.489Z,38.63
2018-02-21T02:18:07.069Z,40.30
2018-02-21T02:20:34.684Z,38.57
2018-02-21T02:23:02.254Z,40.77
2018-02-21T02:25:29.813Z,40.47
2018-02-21T02:27:57.375Z,39.57
2018-02-21T02:30:25.001Z,39.50
2018-02-21T02:32:53.383Z,39.10
2018-02-21T02:35:21.727Z,37.37
2018-02-21T02:37:49.303Z,37.53
2018-02-21T02:40:17.771Z,40.83
2018-02-21T02:42:45.208Z,37.43
2018-02-21T02:45:12.787Z,39.53
2018-02-21T02:47:40.365Z,40.47
2018-02-21T02:50:08.778Z,39.50
2018-02-21T02:52:36.337Z,38.60
2018-02-21T02:55:03.951Z,39.40
2018-02-21T02:57:31.510Z,39.27
2018-02-21T02:59:59.167Z,38.43
2018-02-21T03:02:26.753Z,38.10
2018-02-21T03:04:55.097Z,40.13
2018-02-21T03:07:22.671Z,37.87
2018-02-21T03:09:50.242Z,38.53
2018-02-21T03:12:18.750Z,38.50
2018-02-21T03:14:46.292Z,37.77
2018-02-21T03:17:14.658Z,40.67
2018-02-21T03:19:42.262Z,38.63
2018-02-21T03:22:09.926Z,41.33
2018-02-21T03:24:37.605Z,36.73
2018-02-21T03:27:09.963Z,38.57
2018-02-21T03:29:37.506Z,39.90
2018-02-21T03:32:05.100Z,37.50
2018-02-21T03:34:32.654Z,39.53
2018-02-21T03:37:00.244Z,42.17
2018-02-21T03:39:27.806Z,41.30
2018-02-21T03:41:56.639Z,37.90
2018-02-21T03:44:24.359Z,38.80
2018-02-21T03:46:52.169Z,37.23
2018-02-21T03:49:19.882Z,36.90
2018-02-21T03:51:48.250Z,37.87
2018-02-21T03:54:16.066Z,38.73
2018-02-21T03:56:44.606Z,38.40
2018-02-21T03:59:12.918Z,37.13
2018-02-21T04:01:41.232Z,37.60
2018-02-21T04:04:08.810Z,40.93
2018-02-21T04:06:36.405Z,38.83
2018-02-21T04:09:03.964Z,39.30
2018-02-21T04:11:31.505Z,41.47
2018-02-21T04:13:59.108Z,39.23
2018-02-21T04:16:26.670Z,37.83
2018-02-21T04:18:54.329Z,38.83
2018-02-21T04:21:21.960Z,37.30
2018-02-21T04:23:49.541Z,35.47
2018-02-21T04:26:17.889Z,36.90
2018-02-21T04:28:45.457Z,36.03
2018-02-21T04:31:13.066Z,33.80
2018-02-21T04:33:40.619Z,34.30
2018-02-21T04:36:08.209Z,34.13
2018-02-21T04:38:36.642Z,34.87
2018-02-21T04:41:05.022Z,33.73
2018-02-21T04:43:33.359Z,34.40
2018-02-21T04:46:00.881Z,33.00
2018-02-21T04:48:28.449Z,35.30
2018-02-21T04:50:56.008Z,35.30
2018-02-21T04:53:23.557Z,35.53
2018-02-21T04:58:56.868Z,36.83
2018-02-21T05:01:24.470Z,34.50
2018-02-21T05:03:52.032Z,35.23
2018-02-21T05:06:19.598Z,35.13
2018-02-21T05:08:47.156Z,35.23
2018-02-21T05:11:14.859Z,33.37
2018-02-21T05:13:43.165Z,33.40
2018-02-21T05:16:10.923Z,33.83
2018-02-21T05:18:38.730Z,36.10
2018-02-21T05:21:06.265Z,35.63
2018-02-21T05:23:33.877Z,35.33
2018-02-21T05:26:02.293Z,37.10
2018-02-21T05:28:29.861Z,36.23
2018-02-21T05:30:57.433Z,37.37
2018-02-21T05:33:25.000Z,37.57
2018-02-21T05:35:52.574Z,35.17
2018-02-21T05:38:20.286Z,39.53
2018-02-21T05:40:47.840Z,39.47
2018-02-21T05:43:15.420Z,38.87
2018-02-21T05:45:42.969Z,39.53
2018-02-21T05:48:10.592Z,38.43
2018-02-21T05:50:38.993Z,37.00
2018-02-21T05:53:06.661Z,40.40
2018-02-21T05:55:34.454Z,40.20
2018-02-21T05:58:02.040Z,40.10
2018-02-21T06:00:29.618Z,39.20
2018-02-21T06:02:57.193Z,41.27
2018-02-21T06:05:25.516Z,41.97
2018-02-21T06:07:53.532Z,39.83
2018-02-21T06:10:21.941Z,39.33
2018-02-21T06:12:49.494Z,40.03
2018-02-21T06:15:17.081Z,41.93
2018-02-21T06:17:44.642Z,42.13
2018-02-21T06:20:12.254Z,41.67
2018-02-21T06:22:40.605Z,40.60
2018-02-21T06:25:08.311Z,42.27
2018-02-21T06:27:36.108Z,40.63
2018-02-21T06:30:03.692Z,41.97
2018-02-21T06:32:31.305Z,42.40
2018-02-21T06:34:58.978Z,41.20
2018-02-21T06:37:26.522Z,40.40
2018-02-21T06:39:54.149Z,43.60
2018-02-21T06:42:22.469Z,41.43
2018-02-21T06:44:50.050Z,42.60
2018-02-21T06:47:17.648Z,39.83
2018-02-21T06:49:45.241Z,39.87
2018-02-21T06:52:13.612Z,40.97
2018-02-21T06:54:41.955Z,42.73
2018-02-21T06:57:09.673Z,42.90
2018-02-21T06:59:37.230Z,44.93
2018-02-21T07:02:04.790Z,44.83
2018-02-21T07:04:32.352Z,42.77
2018-02-21T07:06:59.906Z,42.90
2018-02-21T07:09:27.487Z,44.03
2018-02-21T07:11:55.056Z,43.77
2018-02-21T07:14:22.633Z,46.67
2018-02-21T07:16:50.301Z,53.03
2018-02-21T07:19:18.575Z,44.53
2018-02-21T07:21:46.134Z,43.87
2018-02-21T07:24:13.741Z,46.10
2018-02-21T07:26:41.343Z,43.13
2018-02-21T07:29:08.919Z,46.87
2018-02-21T07:31:37.004Z,47.70
2018-02-21T07:34:04.670Z,44.53
2018-02-21T07:36:32.261Z,46.53
2018-02-21T07:38:59.891Z,45.83
2018-02-21T07:41:28.245Z,46.47
2018-02-21T07:43:56.038Z,47.50
2018-02-21T07:46:32.685Z,47.60
2018-02-21T07:49:01.109Z,50.47
2018-02-21T07:51:29.496Z,50.07
2018-02-21T07:53:57.098Z,49.23
2018-02-21T07:56:24.681Z,51.03
2018-02-21T07:58:53.016Z,52.53
2018-02-21T08:01:20.665Z,52.93
2018-02-21T08:03:48.268Z,53.97
2018-02-21T08:06:15.858Z,52.90
2018-02-21T08:08:44.274Z,51.13
2018-02-21T08:11:11.842Z,52.37
2018-02-21T08:13:39.410Z,52.90
2018-02-21T08:16:07.105Z,51.90
2018-02-21T08:18:34.694Z,53.03
2018-02-21T08:21:02.268Z,53.63
2018-02-21T08:23:29.850Z,52.77
2018-02-21T08:25:57.424Z,52.17
2018-02-21T08:28:25.036Z,49.40
2018-02-21T08:30:53.357Z,52.97
2018-02-21T08:33:20.944Z,54.53
2018-02-21T08:35:48.508Z,52.77
2018-02-21T08:38:16.046Z,52.23
2018-02-21T08:40:43.719Z,49.87
2018-02-21T08:43:11.332Z,51.43
2018-02-21T08:45:38.909Z,51.03
2018-02-21T08:48:06.569Z,51.70
2018-02-21T08:50:34.146Z,52.97
2018-02-21T08:53:01.735Z,49.70
2018-02-21T08:55:29.299Z,50.57
2018-02-21T08:57:56.863Z,50.53
2018-02-21T09:00:24.441Z,52.43
2018-02-21T09:02:52.766Z,49.17
2018-02-21T09:05:20.312Z,50.73
2018-02-21T09:07:48.000Z,50.83
2018-02-21T09:10:15.561Z,49.53
2018-02-21T09:12:43.147Z,52.47
2018-02-21T09:15:10.706Z,51.47
2018-02-21T09:17:38.306Z,50.57
2018-02-21T09:20:05.870Z,48.83
2018-02-21T09:22:33.438Z,49.97
2018-02-21T09:25:01.013Z,49.93
2018-02-21T09:27:28.562Z,50.20
2018-02-21T09:29:56.151Z,50.93
2018-02-21T09:32:23.720Z,47.73
2018-02-21T09:34:51.299Z,51.00
2018-02-21T09:37:19.618Z,48.60
2018-02-21T09:39:47.186Z,49.37
2018-02-21T09:42:14.757Z,46.67
2018-02-21T09:44:42.337Z,45.87
2018-02-21T09:47:09.914Z,45.07
2018-02-21T09:49:38.233Z,46.03
2018-02-21T09:52:05.809Z,45.93
2018-02-21T09:54:33.413Z,43.30
2018-02-21T09:57:00.964Z,47.13
2018-02-21T09:59:28.536Z,46.43
2018-02-21T10:01:56.852Z,42.93
2018-02-21T10:04:24.406Z,43.27
2018-02-21T10:06:52.011Z,44.10
2018-02-21T10:09:19.562Z,42.80
2018-02-21T10:11:47.997Z,44.87
2018-02-21T10:14:15.612Z,42.83
2018-02-21T10:16:43.234Z,42.70
2018-02-21T10:19:10.797Z,44.10
2018-02-21T10:21:38.440Z,42.47
2018-02-21T10:24:05.971Z,41.20
2018-02-21T10:26:34.306Z,42.40
2018-02-21T10:29:01.865Z,41.67
2018-02-21T10:31:29.449Z,42.33
2018-02-21T10:33:56.999Z,42.37
2018-02-21T10:36:24.669Z,48.97
2018-02-21T10:38:52.254Z,46.67
2018-02-21T10:41:20.581Z,42.07
2018-02-21T10:43:48.150Z,40.47
2018-02-21T10:46:15.778Z,37.97
2018-02-21T10:48:43.433Z,38.83
2018-02-21T10:51:10.924Z,36.03
2018-02-21T10:53:38.490Z,37.70
2018-02-21T10:56:06.047Z,40.23
2018-02-21T10:58:33.608Z,38.20
2018-02-21T11:01:06.668Z,40.40
2018-02-21T11:03:34.273Z,39.07
2018-02-21T11:06:01.873Z,40.43
2018-02-21T11:08:30.214Z,41.27
2018-02-21T11:10:57.777Z,38.80
2018-02-21T11:13:25.398Z,37.83
2018-02-21T11:15:52.944Z,38.30
2018-02-21T11:18:20.544Z,39.40
2018-02-21T11:20:48.135Z,36.47
2018-02-21T11:23:15.855Z,40.80
2018-02-21T11:25:43.413Z,38.33
2018-02-21T11:28:11.097Z,40.17
2018-02-21T11:30:38.809Z,40.03
2018-02-21T11:33:06.549Z,40.77
2018-02-21T11:35:34.130Z,39.33
2018-02-21T11:38:02.458Z,38.33
2018-02-21T11:40:30.075Z,34.07
2018-02-21T11:42:58.413Z,35.90
2018-02-21T11:45:25.959Z,34.83
2018-02-21T11:47:53.619Z,34.83
2018-02-21T11:50:21.177Z,33.90
2018-02-21T11:52:48.778Z,34.37
2018-02-21T11:55:16.408Z,35.97
2018-02-21T11:57:44.035Z,32.67
2018-02-21T12:00:12.318Z,34.03
2018-02-21T12:02:39.921Z,32.63
2018-02-21T12:05:07.498Z,34.40
2018-02-21T12:07:35.091Z,31.67
2018-02-21T12:10:02.641Z,31.03
2018-02-21T12:12:30.288Z,31.70
2018-02-21T12:14:58.641Z,30.70
2018-02-21T12:17:26.240Z,30.40
2018-02-21T12:19:53.802Z,30.87
2018-02-21T12:22:21.357Z,30.30
2018-02-21T12:24:48.924Z,31.40
2018-02-21T12:27:16.497Z,31.43
2018-02-21T12:29:44.082Z,30.00
2018-02-21T12:32:14.469Z,29.60
2018-02-21T12:34:42.122Z,30.20
2018-02-21T12:37:10.465Z,30.93
2018-02-21T12:39:38.100Z,30.83
2018-02-21T12:42:05.698Z,29.50
2018-02-21T12:44:33.397Z,30.63
2018-02-21T12:47:00.977Z,29.37
2018-02-21T12:49:28.557Z,27.03
2018-02-21T12:51:56.138Z,27.67
2018-02-21T12:54:23.826Z,27.93
2018-02-21T12:56:52.164Z,25.90
2018-02-21T12:59:19.953Z,27.73
2018-02-21T13:01:47.481Z,26.73
2018-02-21T13:04:15.054Z,28.23
2018-02-21T13:06:42.630Z,28.67
2018-02-21T13:09:10.209Z,27.93
2018-02-21T13:11:38.581Z,27.37
2018-02-21T13:14:07.201Z,27.93
2018-02-21T13:16:34.761Z,29.67
2018-02-21T13:19:02.381Z,30.20
2018-02-21T13:21:30.761Z,31.77
2018-02-21T13:23:58.418Z,29.77
2018-02-21T13:26:25.983Z,31.50
2018-02-21T13:28:54.337Z,29.50
2018-02-21T13:31:21.954Z,31.60
2018-02-21T13:33:49.513Z,30.47
2018-02-21T13:36:17.050Z,31.07
2018-02-21T13:38:45.390Z,29.67
2018-02-21T13:41:12.955Z,30.67
2018-02-21T13:43:40.510Z,30.50
2018-02-21T13:46:08.067Z,28.63
2018-02-21T13:48:35.617Z,27.97
2018-02-21T13:51:03.468Z,27.30
2018-02-21T13:53:31.028Z,26.50
2018-02-21T13:55:58.611Z,25.47
2018-02-21T13:58:26.164Z,24.80
2018-02-21T14:00:53.726Z,24.50
2018-02-21T14:03:21.287Z,27.57
2018-02-21T14:05:48.869Z,27.20
2018-02-21T14:08:16.408Z,25.50
2018-02-21T14:10:43.995Z,24.17
2018-02-21T14:13:11.533Z,25.23
2018-02-21T14:15:39.138Z,22.63
2018-02-21T14:18:07.467Z,25.43
2018-02-21T14:20:35.052Z,25.77
2018-02-21T14:23:02.609Z,25.77
2018-02-21T14:25:30.201Z,24.73
2018-02-21T14:27:58.571Z,23.90
2018-02-21T14:30:26.894Z,25.00
2018-02-21T14:32:54.470Z,21.20
2018-02-21T14:35:22.040Z,21.53
2018-02-21T14:37:49.609Z,21.20
2018-02-21T14:40:17.227Z,22.63
2018-02-21T14:42:44.818Z,22.50
2018-02-21T14:45:12.369Z,22.40
2018-02-21T14:47:39.951Z,22.53
2018-02-21T14:50:07.494Z,23.30
2018-02-21T14:52:35.125Z,23.27
2018-02-21T14:55:02.682Z,23.03
2018-02-21T14:57:30.272Z,23.47
2018-02-21T14:59:57.861Z,24.53
2018-02-21T15:02:25.441Z,23.37
2018-02-21T15:04:53.756Z,23.40
2018-02-21T15:07:21.335Z,22.17
2018-02-21T15:09:49.669Z,24.17
2018-02-21T15:12:17.209Z,24.70
2018-02-21T15:14:45.553Z,24.27
2018-02-21T15:17:13.106Z,24.80
2018-02-21T15:19:40.722Z,23.87
2018-02-21T15:22:08.285Z,24.07
2018-02-21T15:24:35.861Z,23.67
2018-02-21T15:27:03.417Z,24.83
2018-02-21T15:29:30.987Z,23.43
2018-02-21T15:31:58.525Z,24.13
2018-02-21T15:34:26.101Z,25.40
2018-02-21T15:36:53.662Z,25.63
2018-02-21T15:39:21.218Z,26.30
2018-02-21T15:41:48.802Z,26.97
2018-02-21T15:44:16.358Z,26.40
2018-02-21T15:46:43.930Z,26.60
2018-02-21T15:49:11.486Z,25.20
2018-02-21T15:51:39.072Z,25.83
2018-02-21T15:54:06.624Z,28.07
2018-02-21T15:56:34.219Z,28.23
2018-02-21T15:59:02.550Z,26.93
2018-02-21T16:01:30.138Z,29.10
2018-02-21T16:03:58.460Z,29.00
2018-02-21T16:06:26.046Z,29.63
2018-02-21T16:08:53.615Z,29.80
2018-02-21T16:11:21.247Z,28.23
2018-02-21T16:13:48.801Z,27.90
2018-02-21T16:16:16.362Z,29.43
2018-02-21T16:18:43.921Z,29.37
2018-02-21T16:21:11.497Z,29.90
2018-02-21T16:23:39.054Z,29.03
2018-02-21T16:26:06.642Z,29.40
2018-02-21T16:28:34.361Z,28.33
2018-02-21T16:31:01.922Z,31.13
2018-02-21T16:33:29.507Z,29.63
2018-02-21T16:35:57.153Z,29.73
2018-02-21T16:38:24.721Z,27.97
2018-02-21T16:40:52.317Z,28.03
2018-02-21T16:43:19.906Z,28.00
2018-02-21T16:45:48.267Z,29.37
2018-02-21T16:48:15.878Z,27.90
2018-02-21T16:50:43.480Z,27.97
2018-02-21T16:53:11.026Z,26.93
2018-02-21T16:55:38.619Z,27.07
2018-02-21T16:58:06.956Z,28.17
2018-02-21T17:00:34.528Z,25.83
2018-02-21T17:03:02.108Z,26.53
2018-02-21T17:05:29.650Z,26.67
2018-02-21T17:07:57.203Z,26.80
2018-02-21T17:10:24.830Z,26.47
2018-02-21T17:12:52.445Z,25.97
2018-02-21T17:15:20.061Z,24.93
2018-02-21T17:17:47.613Z,26.00
2018-02-21T17:20:15.210Z,25.97
2018-02-21T17:22:43.038Z,25.03
2018-02-21T17:25:10.601Z,24.47
2018-02-21T17:27:38.181Z,25.47
2018-02-21T17:30:05.753Z,24.77
2018-02-21T17:32:33.365Z,25.63
2018-02-21T17:35:00.885Z,23.93
2018-02-21T17:37:28.476Z,24.47
2018-02-21T17:39:56.076Z,23.87
2018-02-21T17:42:23.626Z,23.57
2018-02-21T17:44:51.189Z,22.03
2018-02-21T17:47:18.759Z,22.93
2018-02-21T17:49:46.303Z,21.93
2018-02-21T17:52:13.870Z,21.83
2018-02-21T17:54:41.461Z,22.33
2018-02-21T17:57:10.538Z,22.70
2018-02-21T17:59:38.108Z,21.60
2018-02-21T18:02:05.694Z,20.63
2018-02-21T18:04:33.276Z,21.37
2018-02-21T18:07:00.852Z,21.20
2018-02-21T18:09:28.447Z,21.37
2018-02-21T18:11:56.076Z,21.73
2018-02-21T18:14:23.650Z,21.27
2018-02-21T18:16:51.262Z,21.00
2018-02-21T18:19:19.581Z,20.40
2018-02-21T18:21:49.747Z,21.80
2018-02-21T18:24:17.311Z,22.57
2018-02-21T18:26:45.644Z,21.90
2018-02-21T18:29:13.237Z,22.63
2018-02-21T18:31:40.832Z,24.13
2018-02-21T18:34:08.411Z,25.23
2018-02-21T18:36:35.982Z,24.17
2018-02-21T18:39:03.538Z,23.67
2018-02-21T18:41:31.117Z,22.87
2018-02-21T18:43:58.691Z,24.13
2018-02-21T18:46:26.258Z,23.93
2018-02-21T18:48:54.589Z,24.10
2018-02-21T18:51:22.153Z,24.37
2018-02-21T18:53:49.789Z,24.70
2018-02-21T18:56:17.348Z,24.07
2018-02-21T18:58:44.948Z,24.27
2018-02-21T19:01:12.502Z,23.33
2018-02-21T19:03:40.089Z,24.57
2018-02-21T19:06:07.691Z,22.80
2018-02-21T19:08:36.305Z,24.53
2018-02-21T19:11:03.886Z,25.10
2018-02-21T19:13:31.478Z,24.70
2018-02-21T19:15:59.124Z,24.70
2018-02-21T19:18:26.677Z,22.93
2018-02-21T19:20:54.310Z,24.67
2018-02-21T19:23:21.859Z,22.80
2018-02-21T19:25:49.458Z,22.90
2018-02-21T19:28:16.995Z,24.27
2018-02-21T19:30:44.574Z,23.97
2018-02-21T19:33:12.152Z,25.23
2018-02-21T19:35:39.745Z,23.23
2018-02-21T19:38:07.308Z,23.03
2018-02-21T19:40:35.006Z,21.63
2018-02-21T19:43:02.616Z,22.63
2018-02-21T19:45:30.980Z,23.07
2018-02-21T19:47:58.646Z,21.97
2018-02-21T19:50:26.201Z,21.87
2018-02-21T19:52:53.753Z,23.40
2018-02-21T19:55:21.352Z,21.87
2018-02-21T19:57:48.926Z,21.43
2018-02-21T20:00:16.472Z,21.90
2018-02-21T20:02:44.072Z,22.50
2018-02-21T20:05:11.643Z,21.57
2018-02-21T20:07:39.211Z,22.63
2018-02-21T20:10:06.787Z,22.87
2018-02-21T20:12:34.489Z,21.53
2018-02-21T20:15:02.094Z,22.60
2018-02-21T20:17:29.699Z,22.03
2018-02-21T20:19:58.030Z,22.57
2018-02-21T20:22:25.603Z,22.50
2018-02-21T20:24:53.166Z,22.57
2018-02-21T20:27:20.789Z,21.57
2018-02-21T20:29:48.373Z,20.40
2018-02-21T20:32:15.984Z,22.13
2018-02-21T20:34:43.728Z,21.00
2018-02-21T20:37:12.093Z,22.27
2018-02-21T20:39:39.670Z,22.20
2018-02-21T20:42:08.246Z,21.80
2018-02-21T20:44:35.802Z,22.17
2018-02-21T20:47:03.433Z,22.43
2018-02-21T20:49:31.055Z,22.43
2018-02-21T20:51:58.666Z,21.17
2018-02-21T20:54:26.332Z,21.90
2018-02-21T20:56:54.846Z,22.30
2018-02-21T20:59:23.184Z,22.13
2018-02-21T21:01:50.831Z,22.10
2018-02-21T21:04:18.425Z,22.13
2018-02-21T21:06:46.069Z,22.90
2018-02-21T21:09:13.665Z,21.30
2018-02-21T21:11:42.006Z,22.33
2018-02-21T21:14:09.607Z,23.50
2018-02-21T21:16:37.962Z,21.13
2018-02-21T21:19:07.063Z,22.73
2018-02-21T21:21:34.628Z,21.87
2018-02-21T21:24:02.233Z,22.60
2018-02-21T21:26:29.957Z,23.80
2018-02-21T21:28:58.462Z,23.37
2018-02-21T21:31:26.030Z,23.23
2018-02-21T21:33:53.646Z,23.97
2018-02-21T21:36:21.302Z,23.37
2018-02-21T21:38:48.870Z,24.50
2018-02-21T21:41:16.448Z,25.93
2018-02-21T21:43:45.933Z,25.20
2018-02-21T21:46:13.506Z,24.87
2018-02-21T21:48:41.884Z,25.07
2018-02-21T21:51:10.241Z,26.17
2018-02-21T21:53:37.868Z,25.47
2018-02-21T21:56:05.441Z,25.43
2018-02-21T21:58:33.014Z,24.57
2018-02-21T22:01:00.576Z,25.50
2018-02-21T22:03:29.708Z,25.87
2018-02-21T22:05:58.054Z,25.90
2018-02-21T22:08:25.697Z,24.83
2018-02-21T22:10:53.450Z,26.27
2018-02-21T22:13:20.998Z,25.30
2018-02-21T22:15:48.631Z,24.37
2018-02-21T22:18:16.962Z,25.60
2018-02-21T22:20:44.603Z,26.93
2018-02-21T22:23:12.166Z,24.30
2018-02-21T22:25:39.767Z,26.13
2018-02-21T22:28:07.355Z,25.73
2018-02-21T22:30:35.697Z,26.63
2018-02-21T22:33:03.254Z,24.87
2018-02-21T22:35:30.839Z,25.73
2018-02-21T22:37:58.503Z,25.30
2018-02-21T22:40:26.871Z,27.00
2018-02-21T22:42:54.428Z,24.70
2018-02-21T22:45:22.101Z,27.27
2018-02-21T22:47:49.663Z,25.27
2018-02-21T22:50:17.221Z,25.43
2018-02-21T22:52:44.798Z,25.77
2018-02-21T22:55:13.114Z,29.30
2018-02-21T22:57:40.761Z,28.27
2018-02-21T23:00:08.373Z,27.97
2018-02-21T23:02:35.935Z,28.57
2018-02-21T23:05:03.491Z,26.37
2018-02-21T23:07:31.830Z,27.50
2018-02-21T23:09:59.402Z,25.97
2018-02-21T23:12:27.017Z,25.83
2018-02-21T23:14:55.398Z,25.57
2018-02-21T23:17:23.724Z,26.40
2018-02-21T23:19:51.313Z,24.77
2018-02-21T23:22:18.865Z,25.53
2018-02-21T23:24:46.436Z,25.27
2018-02-21T23:27:13.997Z,25.20
2018-02-21T23:29:42.362Z,25.60
2018-02-21T23:32:10.063Z,25.23
2018-02-21T23:34:38.397Z,24.83
2018-02-21T23:37:05.948Z,25.43
2018-02-21T23:39:33.518Z,26.53
2018-02-21T23:42:01.083Z,25.20
2018-02-21T23:44:28.641Z,26.30
2018-02-21T23:46:56.208Z,25.17
2018-02-21T23:49:23.896Z,26.60
2018-02-21T23:51:52.212Z,25.87
2018-02-21T23:54:19.784Z,24.97
2018-02-21T23:56:47.332Z,26.87
2018-02-21T23:59:14.937Z,27.90
